sensor_id;sensor_type;location;lat;lon;timestamp;P1;durP1;ratioP1;P2;durP2;ratioP2
24261;SDS011;12385;51.412;5.540;2023-02-01T00:01:28;29.00;;;5.85;;
24261;SDS011;12385;51.412;5.540;2023-02-01T00:03:54;23.27;;;5.35;;
24261;SDS011;12385;51.412;5.540;2023-02-01T00:06:20;24.13;;;5.45;;
24261;SDS011;12385;51.412;5.540;2023-02-01T00:08:45;24.50;;;5.30;;
24261;SDS011;12385;51.412;5.540;2023-02-01T00:11:11;24.52;;;5.05;;
24261;SDS011;12385;51.412;5.540;2023-02-01T00:13:38;22.05;;;4.65;;
24261;SDS011;12385;51.412;5.540;2023-02-01T00:16:06;23.05;;;4.50;;
24261;SDS011;12385;51.412;5.540;2023-02-01T00:18:32;27.70;;;5.38;;
24261;SDS011;12385;51.412;5.540;2023-02-01T00:20:58;24.80;;;5.25;;
24261;SDS011;12385;51.412;5.540;2023-02-01T00:23:24;21.83;;;5.15;;
24261;SDS011;12385;51.412;5.540;2023-02-01T00:25:50;27.92;;;4.72;;
24261;SDS011;12385;51.412;5.540;2023-02-01T00:28:15;28.98;;;5.00;;
24261;SDS011;12385;51.412;5.540;2023-02-01T00:30:41;35.05;;;5.68;;
24261;SDS011;12385;51.412;5.540;2023-02-01T00:33:07;28.65;;;5.18;;
24261;SDS011;12385;51.412;5.540;2023-02-01T00:35:35;20.88;;;4.45;;
24261;SDS011;12385;51.412;5.540;2023-02-01T00:38:01;20.38;;;4.47;;
24261;SDS011;12385;51.412;5.540;2023-02-01T00:40:27;29.80;;;4.45;;
24261;SDS011;12385;51.412;5.540;2023-02-01T00:42:53;27.58;;;4.97;;
24261;SDS011;12385;51.412;5.540;2023-02-01T02:02:50;29.05;;;4.78;;
24261;SDS011;12385;51.412;5.540;2023-02-01T02:05:28;23.90;;;4.40;;
24261;SDS011;12385;51.412;5.540;2023-02-01T02:07:56;24.88;;;5.35;;
24261;SDS011;12385;51.412;5.540;2023-02-01T02:10:23;26.33;;;5.78;;
24261;SDS011;12385;51.412;5.540;2023-02-01T02:13:09;31.45;;;5.47;;
24261;SDS011;12385;51.412;5.540;2023-02-01T02:15:36;30.88;;;5.68;;
24261;SDS011;12385;51.412;5.540;2023-02-01T02:18:09;31.23;;;6.28;;
24261;SDS011;12385;51.412;5.540;2023-02-01T02:23:40;32.92;;;6.82;;
24261;SDS011;12385;51.412;5.540;2023-02-01T02:29:23;28.50;;;6.13;;
24261;SDS011;12385;51.412;5.540;2023-02-01T02:39:01;39.85;;;6.95;;
24261;SDS011;12385;51.412;5.540;2023-02-01T02:47:34;24.70;;;5.82;;
24261;SDS011;12385;51.412;5.540;2023-02-01T02:51:01;32.22;;;5.57;;
24261;SDS011;12385;51.412;5.540;2023-02-01T02:56:20;35.45;;;5.85;;
24261;SDS011;12385;51.412;5.540;2023-02-01T02:59:07;30.10;;;5.80;;
24261;SDS011;12385;51.412;5.540;2023-02-01T03:01:53;27.73;;;5.90;;
24261;SDS011;12385;51.412;5.540;2023-02-01T03:04:38;27.30;;;5.25;;
24261;SDS011;12385;51.412;5.540;2023-02-01T03:08:08;33.47;;;6.35;;
24261;SDS011;12385;51.412;5.540;2023-02-01T03:10:10;29.52;;;5.40;;
24261;SDS011;12385;51.412;5.540;2023-02-01T03:12:53;42.67;;;5.90;;
24261;SDS011;12385;51.412;5.540;2023-02-01T03:15:26;34.55;;;5.63;;
24261;SDS011;12385;51.412;5.540;2023-02-01T03:17:58;25.17;;;5.03;;
24261;SDS011;12385;51.412;5.540;2023-02-01T03:20:26;31.83;;;5.07;;
24261;SDS011;12385;51.412;5.540;2023-02-01T03:22:54;35.85;;;5.68;;
24261;SDS011;12385;51.412;5.540;2023-02-01T03:25:22;27.42;;;5.35;;
24261;SDS011;12385;51.412;5.540;2023-02-01T03:28:03;40.17;;;5.25;;
24261;SDS011;12385;51.412;5.540;2023-02-01T03:30:31;33.83;;;5.40;;
24261;SDS011;12385;51.412;5.540;2023-02-01T03:33:04;27.85;;;5.07;;
24261;SDS011;12385;51.412;5.540;2023-02-01T03:38:16;29.45;;;4.32;;
24261;SDS011;12385;51.412;5.540;2023-02-01T03:43:55;37.38;;;4.90;;
24261;SDS011;12385;51.412;5.540;2023-02-01T03:46:42;35.35;;;5.10;;
24261;SDS011;12385;51.412;5.540;2023-02-01T03:49:34;41.28;;;5.57;;
24261;SDS011;12385;51.412;5.540;2023-02-01T03:52:02;33.65;;;5.22;;
24261;SDS011;12385;51.412;5.540;2023-02-01T03:54:32;33.50;;;5.55;;
24261;SDS011;12385;51.412;5.540;2023-02-01T03:56:59;32.28;;;4.80;;
24261;SDS011;12385;51.412;5.540;2023-02-01T03:59:29;32.05;;;5.28;;
24261;SDS011;12385;51.412;5.540;2023-02-01T04:01:55;28.52;;;4.63;;
24261;SDS011;12385;51.412;5.540;2023-02-01T04:04:21;25.50;;;3.85;;
24261;SDS011;12385;51.412;5.540;2023-02-01T04:06:47;36.50;;;4.85;;
24261;SDS011;12385;51.412;5.540;2023-02-01T04:09:13;30.55;;;4.88;;
24261;SDS011;12385;51.412;5.540;2023-02-01T04:11:39;29.55;;;4.60;;
24261;SDS011;12385;51.412;5.540;2023-02-01T04:14:05;27.90;;;4.50;;
24261;SDS011;12385;51.412;5.540;2023-02-01T04:16:31;30.80;;;4.72;;
24261;SDS011;12385;51.412;5.540;2023-02-01T04:18:57;31.73;;;4.60;;
24261;SDS011;12385;51.412;5.540;2023-02-01T04:21:23;27.42;;;4.20;;
24261;SDS011;12385;51.412;5.540;2023-02-01T04:23:51;31.92;;;4.95;;
24261;SDS011;12385;51.412;5.540;2023-02-01T04:26:17;34.03;;;5.13;;
24261;SDS011;12385;51.412;5.540;2023-02-01T04:28:44;30.10;;;4.40;;
24261;SDS011;12385;51.412;5.540;2023-02-01T04:31:12;38.88;;;4.75;;
24261;SDS011;12385;51.412;5.540;2023-02-01T04:33:41;21.13;;;4.75;;
24261;SDS011;12385;51.412;5.540;2023-02-01T04:36:07;33.65;;;5.20;;
24261;SDS011;12385;51.412;5.540;2023-02-01T04:38:32;33.00;;;5.22;;
24261;SDS011;12385;51.412;5.540;2023-02-01T04:40:59;38.05;;;5.25;;
24261;SDS011;12385;51.412;5.540;2023-02-01T04:43:25;28.23;;;4.97;;
24261;SDS011;12385;51.412;5.540;2023-02-01T04:45:51;30.10;;;4.20;;
24261;SDS011;12385;51.412;5.540;2023-02-01T04:48:17;30.27;;;4.57;;
24261;SDS011;12385;51.412;5.540;2023-02-01T04:50:44;30.25;;;5.38;;
24261;SDS011;12385;51.412;5.540;2023-02-01T04:53:15;38.65;;;5.13;;
24261;SDS011;12385;51.412;5.540;2023-02-01T04:55:41;28.58;;;4.85;;
24261;SDS011;12385;51.412;5.540;2023-02-01T04:58:07;32.22;;;5.15;;
24261;SDS011;12385;51.412;5.540;2023-02-01T05:00:34;35.63;;;5.38;;
24261;SDS011;12385;51.412;5.540;2023-02-01T05:03:00;35.47;;;6.13;;
24261;SDS011;12385;51.412;5.540;2023-02-01T05:05:26;33.22;;;5.53;;
24261;SDS011;12385;51.412;5.540;2023-02-01T05:07:52;36.45;;;5.05;;
24261;SDS011;12385;51.412;5.540;2023-02-01T05:10:18;39.15;;;5.15;;
24261;SDS011;12385;51.412;5.540;2023-02-01T05:12:44;37.22;;;5.05;;
24261;SDS011;12385;51.412;5.540;2023-02-01T05:15:28;28.83;;;4.78;;
24261;SDS011;12385;51.412;5.540;2023-02-01T05:17:54;30.83;;;5.10;;
24261;SDS011;12385;51.412;5.540;2023-02-01T05:20:20;41.60;;;5.07;;
24261;SDS011;12385;51.412;5.540;2023-02-01T05:22:46;31.40;;;4.95;;
24261;SDS011;12385;51.412;5.540;2023-02-01T05:25:11;27.80;;;4.68;;
24261;SDS011;12385;51.412;5.540;2023-02-01T05:27:37;36.22;;;4.97;;
24261;SDS011;12385;51.412;5.540;2023-02-01T05:30:03;34.70;;;5.32;;
24261;SDS011;12385;51.412;5.540;2023-02-01T05:32:30;36.97;;;5.10;;
24261;SDS011;12385;51.412;5.540;2023-02-01T05:34:56;31.17;;;5.03;;
24261;SDS011;12385;51.412;5.540;2023-02-01T05:37:21;34.72;;;6.10;;
24261;SDS011;12385;51.412;5.540;2023-02-01T05:39:47;39.40;;;5.13;;
24261;SDS011;12385;51.412;5.540;2023-02-01T05:42:13;34.97;;;5.68;;
24261;SDS011;12385;51.412;5.540;2023-02-01T05:44:39;36.75;;;5.68;;
24261;SDS011;12385;51.412;5.540;2023-02-01T05:47:04;32.50;;;5.00;;
24261;SDS011;12385;51.412;5.540;2023-02-01T05:49:30;46.60;;;6.47;;
24261;SDS011;12385;51.412;5.540;2023-02-01T05:51:59;34.38;;;6.18;;
24261;SDS011;12385;51.412;5.540;2023-02-01T05:54:24;34.90;;;5.20;;
24261;SDS011;12385;51.412;5.540;2023-02-01T05:56:50;32.65;;;5.47;;
24261;SDS011;12385;51.412;5.540;2023-02-01T05:59:15;35.30;;;5.78;;
24261;SDS011;12385;51.412;5.540;2023-02-01T06:01:41;38.13;;;5.43;;
24261;SDS011;12385;51.412;5.540;2023-02-01T06:04:07;37.70;;;5.63;;
24261;SDS011;12385;51.412;5.540;2023-02-01T06:06:33;32.00;;;5.40;;
24261;SDS011;12385;51.412;5.540;2023-02-01T06:08:59;37.65;;;5.35;;
24261;SDS011;12385;51.412;5.540;2023-02-01T06:11:25;27.67;;;5.07;;
24261;SDS011;12385;51.412;5.540;2023-02-01T06:13:51;36.05;;;5.88;;
24261;SDS011;12385;51.412;5.540;2023-02-01T06:16:17;26.45;;;5.82;;
24261;SDS011;12385;51.412;5.540;2023-02-01T06:18:42;35.58;;;5.65;;
24261;SDS011;12385;51.412;5.540;2023-02-01T06:21:08;30.30;;;4.97;;
24261;SDS011;12385;51.412;5.540;2023-02-01T06:23:35;32.95;;;5.70;;
24261;SDS011;12385;51.412;5.540;2023-02-01T06:26:01;49.55;;;6.68;;
24261;SDS011;12385;51.412;5.540;2023-02-01T06:28:29;36.42;;;5.63;;
24261;SDS011;12385;51.412;5.540;2023-02-01T06:30:55;43.65;;;5.78;;
24261;SDS011;12385;51.412;5.540;2023-02-01T06:33:22;35.42;;;5.97;;
24261;SDS011;12385;51.412;5.540;2023-02-01T06:35:57;35.63;;;5.53;;
24261;SDS011;12385;51.412;5.540;2023-02-01T06:38:24;33.03;;;6.07;;
24261;SDS011;12385;51.412;5.540;2023-02-01T06:40:55;44.20;;;5.88;;
24261;SDS011;12385;51.412;5.540;2023-02-01T06:43:22;40.10;;;6.03;;
24261;SDS011;12385;51.412;5.540;2023-02-01T06:45:48;28.75;;;4.85;;
24261;SDS011;12385;51.412;5.540;2023-02-01T06:48:14;43.40;;;6.10;;
24261;SDS011;12385;51.412;5.540;2023-02-01T06:50:40;44.63;;;6.10;;
24261;SDS011;12385;51.412;5.540;2023-02-01T06:53:05;39.22;;;6.05;;
24261;SDS011;12385;51.412;5.540;2023-02-01T06:55:31;34.10;;;5.60;;
24261;SDS011;12385;51.412;5.540;2023-02-01T06:57:57;35.13;;;5.78;;
24261;SDS011;12385;51.412;5.540;2023-02-01T07:00:22;40.72;;;6.20;;
24261;SDS011;12385;51.412;5.540;2023-02-01T07:02:48;37.70;;;5.93;;
24261;SDS011;12385;51.412;5.540;2023-02-01T07:05:14;33.20;;;5.80;;
24261;SDS011;12385;51.412;5.540;2023-02-01T07:07:40;41.13;;;5.85;;
24261;SDS011;12385;51.412;5.540;2023-02-01T07:10:06;38.92;;;6.20;;
24261;SDS011;12385;51.412;5.540;2023-02-01T07:12:35;35.95;;;5.63;;
24261;SDS011;12385;51.412;5.540;2023-02-01T07:15:02;36.37;;;5.43;;
24261;SDS011;12385;51.412;5.540;2023-02-01T07:17:28;34.72;;;5.18;;
24261;SDS011;12385;51.412;5.540;2023-02-01T07:19:54;35.58;;;5.38;;
24261;SDS011;12385;51.412;5.540;2023-02-01T07:22:20;36.45;;;5.22;;
24261;SDS011;12385;51.412;5.540;2023-02-01T07:24:46;42.50;;;5.85;;
24261;SDS011;12385;51.412;5.540;2023-02-01T07:27:12;34.88;;;5.50;;
24261;SDS011;12385;51.412;5.540;2023-02-01T07:29:38;39.13;;;5.70;;
24261;SDS011;12385;51.412;5.540;2023-02-01T07:32:04;30.95;;;5.05;;
24261;SDS011;12385;51.412;5.540;2023-02-01T07:34:29;41.85;;;5.57;;
24261;SDS011;12385;51.412;5.540;2023-02-01T07:36:59;30.60;;;5.57;;
24261;SDS011;12385;51.412;5.540;2023-02-01T07:39:24;36.30;;;5.95;;
24261;SDS011;12385;51.412;5.540;2023-02-01T07:41:53;33.58;;;5.47;;
24261;SDS011;12385;51.412;5.540;2023-02-01T07:44:18;41.80;;;6.03;;
24261;SDS011;12385;51.412;5.540;2023-02-01T07:46:47;31.25;;;4.93;;
24261;SDS011;12385;51.412;5.540;2023-02-01T07:49:16;39.13;;;5.97;;
24261;SDS011;12385;51.412;5.540;2023-02-01T07:51:42;35.10;;;5.95;;
24261;SDS011;12385;51.412;5.540;2023-02-01T07:54:08;34.30;;;5.50;;
24261;SDS011;12385;51.412;5.540;2023-02-01T07:56:34;35.63;;;6.20;;
24261;SDS011;12385;51.412;5.540;2023-02-01T07:58:59;37.25;;;6.18;;
24261;SDS011;12385;51.412;5.540;2023-02-01T08:01:26;38.10;;;6.25;;
24261;SDS011;12385;51.412;5.540;2023-02-01T08:03:57;36.92;;;5.95;;
24261;SDS011;12385;51.412;5.540;2023-02-01T08:06:27;43.05;;;6.53;;
24261;SDS011;12385;51.412;5.540;2023-02-01T08:09:01;37.78;;;5.78;;
24261;SDS011;12385;51.412;5.540;2023-02-01T08:11:27;41.90;;;6.05;;
24261;SDS011;12385;51.412;5.540;2023-02-01T08:13:52;31.75;;;5.78;;
24261;SDS011;12385;51.412;5.540;2023-02-01T08:16:19;42.33;;;6.22;;
24261;SDS011;12385;51.412;5.540;2023-02-01T08:18:46;38.80;;;6.07;;
24261;SDS011;12385;51.412;5.540;2023-02-01T08:21:19;40.70;;;6.72;;
24261;SDS011;12385;51.412;5.540;2023-02-01T08:23:50;36.22;;;6.22;;
24261;SDS011;12385;51.412;5.540;2023-02-01T08:26:17;38.30;;;5.75;;
24261;SDS011;12385;51.412;5.540;2023-02-01T08:28:52;31.65;;;5.03;;
24261;SDS011;12385;51.412;5.540;2023-02-01T08:31:23;36.80;;;5.47;;
24261;SDS011;12385;51.412;5.540;2023-02-01T08:33:51;36.78;;;6.40;;
24261;SDS011;12385;51.412;5.540;2023-02-01T08:36:19;36.72;;;5.57;;
24261;SDS011;12385;51.412;5.540;2023-02-01T08:38:46;36.60;;;5.90;;
24261;SDS011;12385;51.412;5.540;2023-02-01T08:41:13;40.83;;;7.47;;
24261;SDS011;12385;51.412;5.540;2023-02-01T08:43:41;28.40;;;5.18;;
24261;SDS011;12385;51.412;5.540;2023-02-01T08:46:07;34.72;;;6.13;;
24261;SDS011;12385;51.412;5.540;2023-02-01T08:48:34;34.83;;;5.60;;
24261;SDS011;12385;51.412;5.540;2023-02-01T08:51:01;38.05;;;5.57;;
24261;SDS011;12385;51.412;5.540;2023-02-01T08:53:31;29.55;;;5.60;;
24261;SDS011;12385;51.412;5.540;2023-02-01T08:55:56;30.88;;;5.70;;
24261;SDS011;12385;51.412;5.540;2023-02-01T08:58:22;37.10;;;6.20;;
24261;SDS011;12385;51.412;5.540;2023-02-01T09:00:48;28.95;;;5.75;;
24261;SDS011;12385;51.412;5.540;2023-02-01T09:03:14;26.55;;;5.55;;
24261;SDS011;12385;51.412;5.540;2023-02-01T09:05:40;33.17;;;5.75;;
24261;SDS011;12385;51.412;5.540;2023-02-01T09:08:06;31.20;;;6.43;;
24261;SDS011;12385;51.412;5.540;2023-02-01T09:10:33;32.92;;;5.85;;
24261;SDS011;12385;51.412;5.540;2023-02-01T09:13:00;37.40;;;5.75;;
24261;SDS011;12385;51.412;5.540;2023-02-01T09:15:25;22.75;;;5.22;;
24261;SDS011;12385;51.412;5.540;2023-02-01T09:17:51;32.70;;;5.90;;
24261;SDS011;12385;51.412;5.540;2023-02-01T09:20:17;38.35;;;5.32;;
24261;SDS011;12385;51.412;5.540;2023-02-01T09:22:45;33.92;;;5.78;;
24261;SDS011;12385;51.412;5.540;2023-02-01T09:25:10;31.08;;;5.18;;
24261;SDS011;12385;51.412;5.540;2023-02-01T09:27:36;28.85;;;5.22;;
24261;SDS011;12385;51.412;5.540;2023-02-01T09:30:02;34.08;;;5.43;;
24261;SDS011;12385;51.412;5.540;2023-02-01T09:32:29;32.80;;;5.70;;
24261;SDS011;12385;51.412;5.540;2023-02-01T09:34:55;34.65;;;5.70;;
24261;SDS011;12385;51.412;5.540;2023-02-01T09:37:20;25.67;;;4.85;;
24261;SDS011;12385;51.412;5.540;2023-02-01T09:39:46;32.63;;;4.93;;
24261;SDS011;12385;51.412;5.540;2023-02-01T09:47:22;30.67;;;4.80;;
24261;SDS011;12385;51.412;5.540;2023-02-01T09:50:02;35.00;;;5.43;;
24261;SDS011;12385;51.412;5.540;2023-02-01T09:55:03;29.58;;;5.00;;
24261;SDS011;12385;51.412;5.540;2023-02-01T09:57:44;29.10;;;4.45;;
24261;SDS011;12385;51.412;5.540;2023-02-01T10:00:20;30.50;;;4.75;;
24261;SDS011;12385;51.412;5.540;2023-02-01T10:02:50;31.63;;;4.75;;
24261;SDS011;12385;51.412;5.540;2023-02-01T10:05:21;26.55;;;4.22;;
24261;SDS011;12385;51.412;5.540;2023-02-01T10:10:55;30.73;;;5.00;;
24261;SDS011;12385;51.412;5.540;2023-02-01T10:21:53;25.05;;;3.72;;
24261;SDS011;12385;51.412;5.540;2023-02-01T10:24:37;27.58;;;4.07;;
24261;SDS011;12385;51.412;5.540;2023-02-01T10:27:17;21.98;;;3.45;;
24261;SDS011;12385;51.412;5.540;2023-02-01T10:29:51;22.98;;;3.85;;
24261;SDS011;12385;51.412;5.540;2023-02-01T10:32:24;21.58;;;3.30;;
24261;SDS011;12385;51.412;5.540;2023-02-01T10:35:00;24.58;;;3.65;;
24261;SDS011;12385;51.412;5.540;2023-02-01T10:37:33;27.58;;;3.83;;
24261;SDS011;12385;51.412;5.540;2023-02-01T10:40:01;24.65;;;3.70;;
24261;SDS011;12385;51.412;5.540;2023-02-01T10:42:40;20.23;;;3.33;;
24261;SDS011;12385;51.412;5.540;2023-02-01T10:45:06;18.45;;;3.17;;
24261;SDS011;12385;51.412;5.540;2023-02-01T10:47:32;22.75;;;3.25;;
24261;SDS011;12385;51.412;5.540;2023-02-01T10:50:02;20.80;;;3.17;;
24261;SDS011;12385;51.412;5.540;2023-02-01T10:52:36;18.88;;;3.88;;
24261;SDS011;12385;51.412;5.540;2023-02-01T10:58:14;20.80;;;3.30;;
24261;SDS011;12385;51.412;5.540;2023-02-01T11:00:43;18.85;;;3.35;;
24261;SDS011;12385;51.412;5.540;2023-02-01T11:03:44;24.27;;;4.40;;
24261;SDS011;12385;51.412;5.540;2023-02-01T11:06:19;21.60;;;3.30;;
24261;SDS011;12385;51.412;5.540;2023-02-01T11:08:53;21.52;;;3.00;;
24261;SDS011;12385;51.412;5.540;2023-02-01T11:11:21;25.20;;;3.20;;
24261;SDS011;12385;51.412;5.540;2023-02-01T11:16:23;19.70;;;3.22;;
24261;SDS011;12385;51.412;5.540;2023-02-01T11:19:01;22.02;;;3.83;;
24261;SDS011;12385;51.412;5.540;2023-02-01T11:21:27;31.45;;;3.53;;
24261;SDS011;12385;51.412;5.540;2023-02-01T11:23:53;29.70;;;3.55;;
24261;SDS011;12385;51.412;5.540;2023-02-01T11:26:26;15.45;;;3.17;;
24261;SDS011;12385;51.412;5.540;2023-02-01T11:29:03;23.02;;;3.28;;
24261;SDS011;12385;51.412;5.540;2023-02-01T11:31:35;21.35;;;3.25;;
24261;SDS011;12385;51.412;5.540;2023-02-01T11:34:05;23.00;;;2.90;;
24261;SDS011;12385;51.412;5.540;2023-02-01T11:36:33;21.23;;;3.15;;
24261;SDS011;12385;51.412;5.540;2023-02-01T11:39:18;20.92;;;3.25;;
24261;SDS011;12385;51.412;5.540;2023-02-01T11:41:55;18.63;;;3.25;;
24261;SDS011;12385;51.412;5.540;2023-02-01T11:44:45;22.50;;;2.90;;
24261;SDS011;12385;51.412;5.540;2023-02-01T11:50:00;22.83;;;3.13;;
24261;SDS011;12385;51.412;5.540;2023-02-01T11:58:22;24.92;;;3.47;;
24261;SDS011;12385;51.412;5.540;2023-02-01T12:06:32;18.05;;;3.03;;
24261;SDS011;12385;51.412;5.540;2023-02-01T12:42:57;21.88;;;3.05;;
24261;SDS011;12385;51.412;5.540;2023-02-01T12:45:43;23.25;;;2.90;;
24261;SDS011;12385;51.412;5.540;2023-02-01T12:50:53;18.13;;;3.13;;
24261;SDS011;12385;51.412;5.540;2023-02-01T12:53:52;27.45;;;3.38;;
24261;SDS011;12385;51.412;5.540;2023-02-01T12:59:34;22.75;;;2.92;;
24261;SDS011;12385;51.412;5.540;2023-02-01T13:04:43;27.38;;;2.90;;
24261;SDS011;12385;51.412;5.540;2023-02-01T13:07:38;22.92;;;3.08;;
24261;SDS011;12385;51.412;5.540;2023-02-01T13:13:18;18.15;;;3.03;;
24261;SDS011;12385;51.412;5.540;2023-02-01T13:16:03;17.38;;;2.80;;
24261;SDS011;12385;51.412;5.540;2023-02-01T13:19:04;22.50;;;3.35;;
24261;SDS011;12385;51.412;5.540;2023-02-01T13:21:38;22.17;;;3.15;;
24261;SDS011;12385;51.412;5.540;2023-02-01T13:24:10;16.38;;;3.10;;
24261;SDS011;12385;51.412;5.540;2023-02-01T13:27:05;21.20;;;3.03;;
24261;SDS011;12385;51.412;5.540;2023-02-01T13:29:31;19.77;;;3.25;;
24261;SDS011;12385;51.412;5.540;2023-02-01T13:40:31;25.00;;;3.83;;
24261;SDS011;12385;51.412;5.540;2023-02-01T13:43:04;25.05;;;3.63;;
24261;SDS011;12385;51.412;5.540;2023-02-01T13:45:48;24.63;;;3.50;;
24261;SDS011;12385;51.412;5.540;2023-02-01T13:48:29;17.33;;;2.75;;
24261;SDS011;12385;51.412;5.540;2023-02-01T13:51:05;19.15;;;3.17;;
24261;SDS011;12385;51.412;5.540;2023-02-01T13:53:33;28.85;;;3.85;;
24261;SDS011;12385;51.412;5.540;2023-02-01T13:56:18;28.77;;;3.88;;
24261;SDS011;12385;51.412;5.540;2023-02-01T13:58:48;22.67;;;2.72;;
24261;SDS011;12385;51.412;5.540;2023-02-01T14:11:34;23.75;;;2.80;;
24261;SDS011;12385;51.412;5.540;2023-02-01T14:16:42;22.00;;;3.42;;
24261;SDS011;12385;51.412;5.540;2023-02-01T14:19:24;25.23;;;3.75;;
24261;SDS011;12385;51.412;5.540;2023-02-01T14:24:25;21.25;;;3.38;;
24261;SDS011;12385;51.412;5.540;2023-02-01T14:27:01;19.95;;;3.15;;
24261;SDS011;12385;51.412;5.540;2023-02-01T14:29:43;25.23;;;3.38;;
24261;SDS011;12385;51.412;5.540;2023-02-01T14:32:24;22.58;;;3.28;;
24261;SDS011;12385;51.412;5.540;2023-02-01T14:34:54;20.20;;;3.55;;
24261;SDS011;12385;51.412;5.540;2023-02-01T14:37:28;19.77;;;3.15;;
24261;SDS011;12385;51.412;5.540;2023-02-01T14:40:03;21.25;;;3.58;;
24261;SDS011;12385;51.412;5.540;2023-02-01T14:50:29;28.67;;;3.80;;
24261;SDS011;12385;51.412;5.540;2023-02-01T14:55:37;29.00;;;4.00;;
24261;SDS011;12385;51.412;5.540;2023-02-01T15:00:57;23.85;;;3.85;;
24261;SDS011;12385;51.412;5.540;2023-02-01T15:03:42;27.42;;;3.90;;
24261;SDS011;12385;51.412;5.540;2023-02-01T15:06:39;19.10;;;3.55;;
24261;SDS011;12385;51.412;5.540;2023-02-01T15:09:27;21.25;;;3.03;;
24261;SDS011;12385;51.412;5.540;2023-02-01T15:14:40;26.23;;;3.42;;
24261;SDS011;12385;51.412;5.540;2023-02-01T15:19:53;29.02;;;3.47;;
24261;SDS011;12385;51.412;5.540;2023-02-01T15:22:24;22.17;;;3.90;;
24261;SDS011;12385;51.412;5.540;2023-02-01T15:24:54;26.17;;;3.67;;
24261;SDS011;12385;51.412;5.540;2023-02-01T15:27:21;21.13;;;3.40;;
24261;SDS011;12385;51.412;5.540;2023-02-01T15:29:48;28.25;;;3.90;;
24261;SDS011;12385;51.412;5.540;2023-02-01T15:35:00;20.20;;;3.60;;
24261;SDS011;12385;51.412;5.540;2023-02-01T15:37:28;24.05;;;3.47;;
24261;SDS011;12385;51.412;5.540;2023-02-01T15:42:55;23.70;;;3.75;;
24261;SDS011;12385;51.412;5.540;2023-02-01T15:45:27;24.23;;;3.60;;
24261;SDS011;12385;51.412;5.540;2023-02-01T15:47:55;20.15;;;3.03;;
24261;SDS011;12385;51.412;5.540;2023-02-01T15:50:22;19.60;;;3.22;;
24261;SDS011;12385;51.412;5.540;2023-02-01T15:52:49;22.52;;;4.10;;
24261;SDS011;12385;51.412;5.540;2023-02-01T15:55:20;25.75;;;4.20;;
24261;SDS011;12385;51.412;5.540;2023-02-01T15:58:09;30.73;;;3.85;;
24261;SDS011;12385;51.412;5.540;2023-02-01T16:00:48;24.83;;;3.30;;
24261;SDS011;12385;51.412;5.540;2023-02-01T16:03:54;25.85;;;4.30;;
24261;SDS011;12385;51.412;5.540;2023-02-01T16:06:10;27.10;;;3.60;;
24261;SDS011;12385;51.412;5.540;2023-02-01T16:11:26;31.33;;;3.50;;
24261;SDS011;12385;51.412;5.540;2023-02-01T16:13:55;27.45;;;3.55;;
24261;SDS011;12385;51.412;5.540;2023-02-01T16:16:24;26.20;;;3.47;;
24261;SDS011;12385;51.412;5.540;2023-02-01T16:18:51;30.15;;;4.28;;
24261;SDS011;12385;51.412;5.540;2023-02-01T16:21:17;23.08;;;3.67;;
24261;SDS011;12385;51.412;5.540;2023-02-01T16:23:42;30.83;;;4.70;;
24261;SDS011;12385;51.412;5.540;2023-02-01T16:26:08;33.33;;;4.35;;
24261;SDS011;12385;51.412;5.540;2023-02-01T16:28:35;25.85;;;3.80;;
24261;SDS011;12385;51.412;5.540;2023-02-01T16:31:00;25.05;;;4.05;;
24261;SDS011;12385;51.412;5.540;2023-02-01T16:33:26;26.95;;;4.13;;
24261;SDS011;12385;51.412;5.540;2023-02-01T16:35:52;29.50;;;3.85;;
24261;SDS011;12385;51.412;5.540;2023-02-01T16:38:24;28.30;;;4.25;;
24261;SDS011;12385;51.412;5.540;2023-02-01T16:40:51;21.63;;;3.65;;
24261;SDS011;12385;51.412;5.540;2023-02-01T16:43:18;24.92;;;3.75;;
24261;SDS011;12385;51.412;5.540;2023-02-01T16:45:48;23.33;;;3.90;;
24261;SDS011;12385;51.412;5.540;2023-02-01T16:50:51;25.83;;;4.00;;
24261;SDS011;12385;51.412;5.540;2023-02-01T16:55:46;18.95;;;3.15;;
24261;SDS011;12385;51.412;5.540;2023-02-01T16:58:14;21.42;;;3.90;;
24261;SDS011;12385;51.412;5.540;2023-02-01T17:00:40;23.58;;;3.00;;
24261;SDS011;12385;51.412;5.540;2023-02-01T17:03:06;26.52;;;4.38;;
24261;SDS011;12385;51.412;5.540;2023-02-01T17:05:32;23.40;;;3.70;;
24261;SDS011;12385;51.412;5.540;2023-02-01T17:08:04;25.85;;;3.63;;
24261;SDS011;12385;51.412;5.540;2023-02-01T17:10:31;26.48;;;4.03;;
24261;SDS011;12385;51.412;5.540;2023-02-01T17:12:57;20.60;;;3.08;;
24261;SDS011;12385;51.412;5.540;2023-02-01T17:15:23;22.15;;;3.70;;
24261;SDS011;12385;51.412;5.540;2023-02-01T17:17:51;23.02;;;3.45;;
24261;SDS011;12385;51.412;5.540;2023-02-01T17:20:20;20.08;;;3.13;;
24261;SDS011;12385;51.412;5.540;2023-02-01T17:22:48;24.70;;;4.50;;
24261;SDS011;12385;51.412;5.540;2023-02-01T17:25:16;25.10;;;3.88;;
24261;SDS011;12385;51.412;5.540;2023-02-01T17:27:43;21.70;;;3.80;;
24261;SDS011;12385;51.412;5.540;2023-02-01T17:30:10;20.98;;;3.30;;
24261;SDS011;12385;51.412;5.540;2023-02-01T17:32:37;23.70;;;3.75;;
24261;SDS011;12385;51.412;5.540;2023-02-01T17:35:03;24.73;;;3.33;;
24261;SDS011;12385;51.412;5.540;2023-02-01T17:37:33;28.08;;;3.70;;
24261;SDS011;12385;51.412;5.540;2023-02-01T17:40:00;21.30;;;3.05;;
24261;SDS011;12385;51.412;5.540;2023-02-01T17:42:26;25.00;;;3.83;;
24261;SDS011;12385;51.412;5.540;2023-02-01T17:44:57;24.92;;;3.60;;
24261;SDS011;12385;51.412;5.540;2023-02-01T17:47:25;21.60;;;3.63;;
24261;SDS011;12385;51.412;5.540;2023-02-01T17:49:50;23.85;;;3.75;;
24261;SDS011;12385;51.412;5.540;2023-02-01T17:52:20;22.45;;;3.42;;
24261;SDS011;12385;51.412;5.540;2023-02-01T17:54:48;24.33;;;3.63;;
24261;SDS011;12385;51.412;5.540;2023-02-01T17:57:17;21.13;;;3.55;;
24261;SDS011;12385;51.412;5.540;2023-02-01T17:59:43;20.73;;;3.30;;
24261;SDS011;12385;51.412;5.540;2023-02-01T18:02:16;24.42;;;3.50;;
24261;SDS011;12385;51.412;5.540;2023-02-01T18:04:47;27.40;;;3.58;;
24261;SDS011;12385;51.412;5.540;2023-02-01T18:07:14;20.25;;;3.28;;
24261;SDS011;12385;51.412;5.540;2023-02-01T18:09:40;27.70;;;4.07;;
24261;SDS011;12385;51.412;5.540;2023-02-01T18:12:14;27.67;;;4.63;;
24261;SDS011;12385;51.412;5.540;2023-02-01T18:14:45;22.17;;;3.60;;
24261;SDS011;12385;51.412;5.540;2023-02-01T18:17:10;21.77;;;3.55;;
24261;SDS011;12385;51.412;5.540;2023-02-01T18:19:37;24.55;;;3.63;;
24261;SDS011;12385;51.412;5.540;2023-02-01T18:22:03;21.52;;;3.53;;
24261;SDS011;12385;51.412;5.540;2023-02-01T18:24:29;20.58;;;3.50;;
24261;SDS011;12385;51.412;5.540;2023-02-01T18:26:59;18.42;;;4.50;;
24261;SDS011;12385;51.412;5.540;2023-02-01T18:29:24;24.95;;;3.90;;
24261;SDS011;12385;51.412;5.540;2023-02-01T18:31:50;22.25;;;3.97;;
24261;SDS011;12385;51.412;5.540;2023-02-01T18:34:15;26.83;;;3.45;;
24261;SDS011;12385;51.412;5.540;2023-02-01T18:36:46;26.83;;;3.95;;
24261;SDS011;12385;51.412;5.540;2023-02-01T18:39:12;22.75;;;3.55;;
24261;SDS011;12385;51.412;5.540;2023-02-01T18:41:38;20.45;;;3.38;;
24261;SDS011;12385;51.412;5.540;2023-02-01T18:44:05;23.23;;;4.13;;
24261;SDS011;12385;51.412;5.540;2023-02-01T18:46:30;26.83;;;3.60;;
24261;SDS011;12385;51.412;5.540;2023-02-01T18:48:56;25.55;;;3.67;;
24261;SDS011;12385;51.412;5.540;2023-02-01T18:51:21;25.13;;;3.90;;
24261;SDS011;12385;51.412;5.540;2023-02-01T18:53:48;20.52;;;3.67;;
24261;SDS011;12385;51.412;5.540;2023-02-01T18:56:16;29.38;;;4.00;;